Main page
METAR-TAF:

METAR-TAF

Airports :

Rivera International Airport

Rivera, Uruguay

latitude: 30-53S, longitude: 055-32W, elevation: 205 m

METAR: missing

Time: 15:44 (18:44 UTC)

Forecast

The report was made 1 hour and 14 minutes ago, at 17:30 UTC
Forecast valid from 29 at 18 UTC to 30 at 18 UTC
Wind 12 kt from the Southeast
Visibility 10 km or more
Scattered clouds at a height of 2300 ft
Temporary
from 30 at 06 UTC to 30 at 10 UTC
Wind 5 kt from the East
Visibility: 2000 m
Broken clouds at a height of 400 ft
mist

TAF: SURV 291730Z 2918/3018 14012KT 9999 SCT023 TX31/3018Z TN18/3009Z TEMPO 3006/3010 09005KT 2000 BR BKN004

Weather observations and forecasts of more than 4000 airports (METAR and TAF reports).

The available stations are represented by yellow and red dots on the map.

Hover mouse over dot to see the name of the station.

Then click to see weather observations and forecasts.

To change the map : click on the green buttons with a black cross to zoom in, on the green button with a dash to zoom out, or on the green arrows for adjacent maps.


METAR-TAF: